Time;durP1;ratioP1;P1;durP2;ratioP2;P2;SDS_P1;SDS_P2;PMS_P1;PMS_P2;Temp;Humidity;BMP_temperature;BMP_pressure;BME280_temperature;BME280_humidity;BME280_pressure;Samples;Min_cycle;Max_cycle;Signal;HPM_P1;HPM_P2
2022/01/12 00:01:15;;;;;;;12.43;6.57;;;0.30;88.00;;;;;;5088777;28;20183;-73
2022/01/12 00:03:43;;;;;;;13.95;7.88;;;0.30;88.30;;;;;;5086850;28;20480;-71
2022/01/12 00:06:09;;;;;;;14.23;6.70;;;0.30;88.40;;;;;;5089647;28;20203;-72
2022/01/12 00:08:34;;;;;;;13.23;7.20;;;0.30;88.70;;;;;;5090010;28;20252;-72
2022/01/12 00:11:03;;;;;;;10.43;6.50;;;0.30;88.90;;;;;;5089909;28;20266;-72
2022/01/12 00:13:28;;;;;;;11.13;7.40;;;0.20;89.00;;;;;;5090191;28;20177;-72
2022/01/12 00:15:54;;;;;;;14.07;6.83;;;0.20;89.20;;;;;;5089147;28;20199;-72
2022/01/12 00:18:21;;;;;;;14.23;7.13;;;0.10;89.30;;;;;;5089976;28;20565;-73
2022/01/12 00:20:49;;;;;;;11.20;6.47;;;0.10;89.60;;;;;;5090066;28;20520;-73
2022/01/12 00:23:15;;;;;;;12.10;7.25;;;0.10;89.50;;;;;;5085121;28;20236;-75
2022/01/12 00:25:58;;;;;;;16.80;6.45;;;0.10;89.50;;;;;;5088730;28;20210;-72
2022/01/12 00:33:55;;;;;;;14.38;7.18;;;0.00;90.20;;;;;;5089570;28;20214;-72
2022/01/12 00:36:21;;;;;;;13.65;7.32;;;0.00;90.40;;;;;;5088011;28;20234;-73
2022/01/12 00:38:47;;;;;;;12.68;8.00;;;0.00;90.40;;;;;;5089885;28;20183;-71
2022/01/12 00:41:19;;;;;;;10.88;6.72;;;0.00;90.40;;;;;;5086127;28;20252;-72
2022/01/12 00:43:49;;;;;;;11.13;6.07;;;0.00;90.40;;;;;;5089577;28;20180;-71
2022/01/12 00:46:15;;;;;;;11.35;6.05;;;0.00;90.40;;;;;;5089688;28;20264;-72
2022/01/12 00:48:41;;;;;;;12.30;7.07;;;-0.10;90.50;;;;;;5092414;28;20674;-72
2022/01/12 00:51:10;;;;;;;12.03;6.90;;;-0.10;90.50;;;;;;5091866;28;20179;-72
2022/01/12 00:53:36;;;;;;;13.05;6.55;;;-0.10;90.30;;;;;;5089832;28;20510;-72
2022/01/12 00:56:01;;;;;;;10.23;6.00;;;-0.10;90.20;;;;;;5088453;28;20191;-72
2022/01/12 00:58:27;;;;;;;11.93;7.37;;;-0.10;90.40;;;;;;5090521;28;21072;-72
2022/01/12 01:00:53;;;;;;;9.70;6.50;;;-0.10;90.50;;;;;;5091302;28;20677;-72
2022/01/12 01:03:19;;;;;;;12.20;6.37;;;-0.10;90.60;;;;;;5091393;28;20179;-72
2022/01/12 01:05:44;;;;;;;11.27;6.10;;;-0.20;90.60;;;;;;5092022;28;20203;-73
2022/01/12 01:08:10;;;;;;;10.83;6.13;;;-0.20;90.60;;;;;;5091973;28;20213;-71
2022/01/12 01:10:51;;;;;;;11.27;6.27;;;-0.20;90.80;;;;;;5093348;28;20224;-72
2022/01/12 01:13:23;;;;;;;10.98;6.22;;;-0.20;90.80;;;;;;5093157;28;20616;-72
2022/01/12 01:26:31;;;;;;;14.40;7.13;;;-0.20;90.70;;;;;;5089355;28;20193;-73
2022/01/12 01:28:57;;;;;;;10.70;6.53;;;-0.20;90.60;;;;;;5092639;28;20207;-72
2022/01/12 01:31:32;;;;;;;10.80;6.77;;;-0.20;90.50;;;;;;5092876;28;20433;-73
2022/01/12 01:34:07;;;;;;;10.07;6.72;;;-0.20;90.60;;;;;;5092843;28;20166;-73
2022/01/12 01:36:34;;;;;;;9.50;6.22;;;-0.30;90.60;;;;;;5092133;28;20667;-72
2022/01/12 01:39:00;;;;;;;11.73;6.30;;;-0.40;90.80;;;;;;5092808;28;20190;-72
2022/01/12 01:41:26;;;;;;;9.50;5.83;;;-0.40;91.00;;;;;;5088600;28;20263;-71
2022/01/12 01:55:09;;;;;;;13.05;7.30;;;-0.40;90.80;;;;;;5092774;28;20217;-74
2022/01/12 01:57:35;;;;;;;13.60;6.90;;;-0.40;90.90;;;;;;5091522;28;20685;-71
2022/01/12 02:00:07;;;;;;;14.65;7.95;;;-0.40;91.20;;;;;;5092380;28;20187;-73
2022/01/12 02:02:32;;;;;;;15.52;7.55;;;-0.40;91.40;;;;;;5091796;28;20241;-72
2022/01/12 02:04:58;;;;;;;19.23;7.30;;;-0.50;91.70;;;;;;5088164;28;20199;-71
2022/01/12 02:07:24;;;;;;;14.83;8.07;;;-0.50;92.00;;;;;;5093130;28;20661;-73
2022/01/12 02:09:50;;;;;;;14.15;7.10;;;-0.50;92.10;;;;;;5093225;28;20179;-72
2022/01/12 02:12:28;;;;;;;10.80;6.20;;;-0.50;92.10;;;;;;5092295;28;20517;-72
2022/01/12 02:14:55;;;;;;;11.68;6.10;;;-0.40;92.20;;;;;;5094280;28;20191;-73
2022/01/12 02:17:26;;;;;;;14.10;6.85;;;-0.50;92.10;;;;;;5094381;28;20182;-72
2022/01/12 02:41:22;;;;;;;15.63;6.93;;;-0.60;91.50;;;;;;5094934;28;20174;-73
2022/01/12 02:54:47;;;;;;;15.57;7.95;;;-0.60;92.10;;;;;;5091814;28;20207;-73
2022/01/12 02:57:13;;;;;;;15.27;7.80;;;-0.70;92.10;;;;;;5085986;28;20274;-73
2022/01/12 02:59:54;;;;;;;15.93;7.80;;;-0.70;92.20;;;;;;5091544;28;20274;-72
2022/01/12 03:02:27;;;;;;;15.88;7.93;;;-0.70;92.20;;;;;;5091510;28;20915;-73
2022/01/12 03:05:26;;;;;;;15.82;7.47;;;-0.70;92.20;;;;;;5091656;28;20191;-73
2022/01/12 03:07:40;;;;;;;15.85;7.20;;;-0.70;92.10;;;;;;5090884;28;20268;-73
2022/01/12 03:10:08;;;;;;;12.23;8.40;;;-0.70;92.00;;;;;;5091500;28;20199;-73
2022/01/12 03:12:52;;;;;;;14.77;8.02;;;-0.70;91.70;;;;;;5091497;28;20187;-73
2022/01/12 03:15:18;;;;;;;15.90;7.60;;;-0.80;91.90;;;;;;5085612;28;20199;-72
2022/01/12 03:17:44;;;;;;;13.60;7.40;;;-0.80;92.00;;;;;;5090736;28;20201;-73
2022/01/12 03:20:10;;;;;;;15.88;8.68;;;-0.70;92.20;;;;;;5091163;28;20183;-73
2022/01/12 03:22:37;;;;;;;15.45;8.90;;;-0.70;92.30;;;;;;5090369;28;20195;-72
2022/01/12 03:25:03;;;;;;;14.77;7.30;;;-0.70;92.20;;;;;;5089679;28;20203;-74
2022/01/12 03:27:29;;;;;;;14.48;7.95;;;-0.70;92.20;;;;;;5090184;28;20209;-73
2022/01/12 03:29:56;;;;;;;13.57;8.03;;;-0.70;92.20;;;;;;5090630;28;20183;-74
2022/01/12 03:32:40;;;;;;;11.85;7.40;;;-0.70;92.10;;;;;;5089200;28;20186;-73
2022/01/12 03:35:11;;;;;;;15.27;8.20;;;-0.80;92.10;;;;;;5083750;28;20206;-73
2022/01/12 03:40:05;;;;;;;15.65;7.50;;;-0.80;92.20;;;;;;5086891;28;20202;-74
2022/01/12 03:42:32;;;;;;;20.42;8.70;;;-0.80;92.30;;;;;;5091505;28;20194;-74
2022/01/12 03:44:57;;;;;;;14.68;7.63;;;-0.80;92.30;;;;;;5090479;28;20207;-73
2022/01/12 03:47:23;;;;;;;16.60;7.73;;;-0.80;92.40;;;;;;5090778;28;20217;-74
2022/01/12 03:49:49;;;;;;;14.57;7.73;;;-0.80;92.50;;;;;;5091328;28;20453;-72
2022/01/12 03:52:15;;;;;;;13.30;7.90;;;-0.80;92.50;;;;;;5089400;28;20184;-73
2022/01/12 03:54:41;;;;;;;12.87;7.27;;;-0.80;92.60;;;;;;5090050;28;20575;-71
2022/01/12 03:57:06;;;;;;;14.85;8.02;;;-0.80;92.50;;;;;;5089125;28;20183;-71
2022/01/12 03:59:32;;;;;;;16.33;8.00;;;-0.80;92.60;;;;;;5089885;28;20183;-72
2022/01/12 04:01:58;;;;;;;15.53;8.20;;;-0.80;92.60;;;;;;5089362;28;20191;-72
2022/01/12 04:04:32;;;;;;;18.75;8.63;;;-0.80;92.70;;;;;;5086005;28;21110;-71
2022/01/12 04:09:44;;;;;;;14.13;8.18;;;-0.90;92.60;;;;;;5091198;28;20186;-72
2022/01/12 04:12:10;;;;;;;15.45;7.68;;;-1.00;92.70;;;;;;5092998;28;20631;-72
2022/01/12 04:14:36;;;;;;;16.43;8.10;;;-1.00;92.80;;;;;;5093528;28;20199;-73
2022/01/12 04:17:02;;;;;;;15.30;8.40;;;-1.00;93.00;;;;;;5091771;28;20425;-72
2022/01/12 04:19:27;;;;;;;17.03;8.13;;;-1.00;93.00;;;;;;5092768;28;20267;-73
2022/01/12 04:21:53;;;;;;;16.40;9.30;;;-1.10;93.10;;;;;;5092168;28;20760;-72
2022/01/12 04:24:23;;;;;;;13.57;8.57;;;-1.20;93.20;;;;;;5091706;28;20856;-74
2022/01/12 04:26:49;;;;;;;18.48;9.07;;;-1.10;93.30;;;;;;5090122;28;20425;-73
2022/01/12 04:29:14;;;;;;;16.00;9.10;;;-1.10;93.30;;;;;;5092118;28;20202;-74
2022/01/12 04:31:41;;;;;;;16.00;8.80;;;-1.10;93.30;;;;;;5091731;28;20768;-73
2022/01/12 04:34:08;;;;;;;20.02;9.63;;;-1.10;93.30;;;;;;5091999;28;20171;-73
2022/01/12 04:36:34;;;;;;;21.80;10.88;;;-1.10;93.30;;;;;;5093291;28;20190;-73
2022/01/12 04:39:00;;;;;;;18.43;9.70;;;-1.10;93.40;;;;;;5096055;28;20183;-73
2022/01/12 04:41:26;;;;;;;19.50;9.73;;;-1.10;93.40;;;;;;5091907;28;20214;-73
2022/01/12 04:43:53;;;;;;;19.38;9.25;;;-1.10;93.40;;;;;;5095626;28;20474;-74
2022/01/12 04:46:28;;;;;;;17.20;9.55;;;-1.20;93.50;;;;;;5094677;28;20246;-73
2022/01/12 04:49:47;;;;;;;19.42;10.35;;;-1.20;93.50;;;;;;5096220;28;20239;-73
2022/01/12 04:51:45;;;;;;;16.00;9.68;;;-1.20;93.60;;;;;;5092265;28;20665;-73
2022/01/12 04:54:11;;;;;;;24.40;10.47;;;-1.10;93.60;;;;;;5095416;28;20174;-72
2022/01/12 04:56:37;;;;;;;17.87;10.10;;;-1.10;93.40;;;;;;5096076;28;20175;-71
2022/01/12 04:59:02;;;;;;;16.20;9.70;;;-1.10;93.50;;;;;;5095620;28;20205;-73
2022/01/12 05:01:35;;;;;;;20.37;10.10;;;-1.10;93.40;;;;;;5097316;28;20175;-72
2022/01/12 05:14:53;;;;;;;16.88;9.55;;;-1.10;93.60;;;;;;5093107;28;20541;-72
2022/01/12 05:17:19;;;;;;;21.20;10.63;;;-1.20;93.60;;;;;;5092704;28;20186;-73
2022/01/12 05:19:44;;;;;;;20.30;9.30;;;-1.20;93.70;;;;;;5092949;28;20183;-73
2022/01/12 05:22:10;;;;;;;19.70;11.27;;;-1.20;93.70;;;;;;5092424;28;20316;-73
2022/01/12 05:24:36;;;;;;;22.23;10.87;;;-1.20;93.70;;;;;;5091570;28;20231;-72
2022/01/12 05:27:02;;;;;;;26.53;12.60;;;-1.20;93.80;;;;;;5091549;28;20757;-72
2022/01/12 05:29:27;;;;;;;22.03;11.10;;;-1.30;93.70;;;;;;5092958;28;20228;-72
2022/01/12 05:31:53;;;;;;;21.33;11.80;;;-1.30;93.80;;;;;;5092653;28;20445;-72
2022/01/12 05:34:20;;;;;;;27.30;11.80;;;-1.30;93.90;;;;;;5091654;28;20195;-73
2022/01/12 05:36:46;;;;;;;20.92;11.30;;;-1.40;93.90;;;;;;5090584;28;20217;-73
2022/01/12 05:39:12;;;;;;;25.67;12.40;;;-1.40;94.00;;;;;;5091387;28;20657;-73
2022/01/12 05:41:37;;;;;;;25.37;13.70;;;-1.40;93.90;;;;;;5090172;28;20198;-72
2022/01/12 05:44:06;;;;;;;25.17;11.40;;;-1.30;94.00;;;;;;5092609;28;20179;-72
2022/01/12 05:46:32;;;;;;;27.92;13.23;;;-1.30;94.10;;;;;;5091586;28;20253;-72
2022/01/12 05:51:44;;;;;;;28.15;13.40;;;-1.30;93.90;;;;;;5092171;28;20198;-72
2022/01/12 05:54:10;;;;;;;26.77;13.80;;;-1.30;93.80;;;;;;5092423;28;20660;-72
2022/01/12 05:56:35;;;;;;;26.48;14.63;;;-1.30;93.80;;;;;;5091768;28;20582;-72
2022/01/12 05:59:01;;;;;;;33.67;14.20;;;-1.30;93.80;;;;;;5094025;28;20187;-73
2022/01/12 06:01:27;;;;;;;29.07;14.40;;;-1.40;93.80;;;;;;5095434;28;20175;-72
2022/01/12 06:03:53;;;;;;;23.90;13.50;;;-1.40;93.90;;;;;;5082409;28;20282;-72
2022/01/12 06:06:19;;;;;;;32.95;15.45;;;-1.40;94.00;;;;;;5091804;28;20286;-74
2022/01/12 06:08:45;;;;;;;28.30;13.80;;;-1.30;94.10;;;;;;5092416;28;20681;-73
2022/01/12 06:11:11;;;;;;;27.10;14.00;;;-1.30;94.10;;;;;;5091962;28;20211;-72
2022/01/12 06:13:36;;;;;;;28.93;14.90;;;-1.30;94.00;;;;;;5092384;28;20417;-71
2022/01/12 06:16:02;;;;;;;29.30;14.50;;;-1.30;93.90;;;;;;5091917;28;20576;-73
2022/01/12 06:18:28;;;;;;;26.20;14.13;;;-1.20;93.90;;;;;;5092435;28;20188;-73
2022/01/12 06:20:53;;;;;;;31.87;14.60;;;-1.10;93.80;;;;;;5091614;28;20860;-73
2022/01/12 06:23:19;;;;;;;33.13;15.37;;;-1.10;93.70;;;;;;5091685;28;20266;-73
2022/01/12 06:25:45;;;;;;;29.50;15.07;;;-1.10;93.40;;;;;;5091334;28;20210;-73
2022/01/12 06:31:26;;;;;;;32.80;14.70;;;-1.20;93.20;;;;;;5092920;28;20211;-73
2022/01/12 06:33:47;;;;;;;34.30;15.77;;;-1.20;93.20;;;;;;5091000;28;20593;-72
2022/01/12 06:36:15;;;;;;;29.55;15.48;;;-1.30;93.30;;;;;;5085588;28;20278;-73
2022/01/12 06:38:42;;;;;;;32.67;15.35;;;-1.30;93.70;;;;;;5090755;28;20282;-71
2022/01/12 06:41:10;;;;;;;32.65;15.40;;;-1.20;93.80;;;;;;5087413;28;20180;-74
2022/01/12 06:43:35;;;;;;;35.65;17.05;;;-1.20;93.80;;;;;;5091390;28;20884;-73
2022/01/12 06:46:03;;;;;;;30.73;16.67;;;-1.30;93.70;;;;;;5090831;28;20227;-72
2022/01/12 06:48:29;;;;;;;31.48;15.18;;;-1.40;93.70;;;;;;5091126;28;20842;-73
2022/01/12 06:50:55;;;;;;;35.93;16.63;;;-1.40;93.90;;;;;;5091665;28;20184;-74
2022/01/12 06:53:20;;;;;;;34.30;17.23;;;-1.40;94.00;;;;;;5094764;28;20934;-73
2022/01/12 06:55:46;;;;;;;31.93;15.37;;;-1.40;94.20;;;;;;5094229;28;20214;-74
2022/01/12 06:58:12;;;;;;;38.77;17.30;;;-1.30;94.10;;;;;;5092308;28;20236;-73
2022/01/12 07:00:38;;;;;;;31.77;16.73;;;-1.40;94.10;;;;;;5093246;28;20195;-74
2022/01/12 07:03:04;;;;;;;32.42;16.42;;;-1.40;94.10;;;;;;5090639;28;20952;-72
2022/01/12 07:05:30;;;;;;;32.93;15.70;;;-1.40;94.10;;;;;;5087544;28;20206;-72
2022/01/12 07:07:55;;;;;;;30.37;15.10;;;-1.30;94.20;;;;;;5091100;28;20203;-74
2022/01/12 07:10:21;;;;;;;37.73;15.47;;;-1.30;94.10;;;;;;5086390;28;20182;-72
2022/01/12 07:12:47;;;;;;;33.67;16.93;;;-1.30;93.90;;;;;;5091532;28;20179;-73
2022/01/12 07:15:13;;;;;;;34.63;16.80;;;-1.30;93.80;;;;;;5090514;28;20195;-74
2022/01/12 07:17:38;;;;;;;31.23;15.63;;;-1.30;93.70;;;;;;5090841;28;20183;-72
2022/01/12 07:20:05;;;;;;;38.73;16.23;;;-1.20;93.80;;;;;;5090678;28;20561;-71
2022/01/12 07:22:32;;;;;;;34.20;17.05;;;-1.20;93.70;;;;;;5090205;28;20274;-74
2022/01/12 07:24:57;;;;;;;28.70;15.90;;;-1.10;93.50;;;;;;5081018;28;20213;-71
2022/01/12 07:27:23;;;;;;;31.17;15.80;;;-1.10;93.40;;;;;;5093293;28;20297;-73
2022/01/12 07:29:49;;;;;;;42.80;17.40;;;-1.00;93.40;;;;;;5096564;28;20185;-74
2022/01/12 07:32:15;;;;;;;30.67;14.40;;;-1.00;93.20;;;;;;5097917;28;20175;-74
2022/01/12 07:34:40;;;;;;;34.30;17.13;;;-0.90;93.30;;;;;;5094551;28;20531;-71
2022/01/12 07:37:06;;;;;;;32.93;15.70;;;-0.80;93.00;;;;;;5092473;28;20613;-74
2022/01/12 07:39:32;;;;;;;33.43;15.10;;;-0.80;92.60;;;;;;5086538;28;20184;-73
2022/01/12 07:41:58;;;;;;;34.83;15.85;;;-0.60;92.50;;;;;;5089812;28;20216;-74
2022/01/12 07:44:24;;;;;;;31.60;17.50;;;-0.50;92.00;;;;;;5088944;28;20195;-72
2022/01/12 07:46:49;;;;;;;33.37;16.07;;;-0.40;91.50;;;;;;5090046;28;20650;-72
2022/01/12 07:49:15;;;;;;;30.80;16.00;;;-0.40;91.00;;;;;;5089141;28;20293;-72
2022/01/12 07:51:41;;;;;;;34.77;15.70;;;-0.50;90.60;;;;;;5090202;28;20645;-75
2022/01/12 07:54:07;;;;;;;34.77;17.00;;;-0.60;90.40;;;;;;5091820;28;20271;-73
2022/01/12 07:56:32;;;;;;;34.17;17.73;;;-0.70;90.50;;;;;;5089745;28;20190;-73
2022/01/12 07:58:58;;;;;;;33.70;16.33;;;-0.60;90.70;;;;;;5090123;28;20428;-73
2022/01/12 08:01:24;;;;;;;27.60;15.47;;;-0.50;90.70;;;;;;5089227;28;20671;-73
2022/01/12 08:03:50;;;;;;;30.07;16.23;;;-0.40;90.50;;;;;;5086747;28;20186;-73
2022/01/12 08:06:16;;;;;;;32.83;15.40;;;-0.40;90.10;;;;;;5089200;28;20203;-72
2022/01/12 08:08:42;;;;;;;34.88;15.55;;;-0.30;89.90;;;;;;5089906;28;20207;-72
2022/01/12 08:11:08;;;;;;;30.87;15.77;;;-0.30;89.60;;;;;;5087666;28;20206;-74
2022/01/12 08:13:34;;;;;;;35.00;16.23;;;-0.30;89.50;;;;;;5089397;28;20279;-72
2022/01/12 08:16:00;;;;;;;33.95;15.30;;;-0.30;89.50;;;;;;5089173;28;20191;-73
2022/01/12 08:18:26;;;;;;;31.70;15.20;;;-0.40;89.20;;;;;;5090388;28;20347;-71
2022/01/12 08:20:52;;;;;;;31.77;15.07;;;-0.40;89.20;;;;;;5089622;28;20179;-73
2022/01/12 08:23:19;;;;;;;32.70;16.10;;;-0.40;89.30;;;;;;5089754;28;20452;-74
2022/01/12 08:25:45;;;;;;;35.53;17.00;;;-0.40;89.50;;;;;;5089122;28;20206;-73
2022/01/12 08:28:11;;;;;;;33.00;15.87;;;-0.40;89.60;;;;;;5089912;28;20203;-71
2022/01/12 08:30:36;;;;;;;29.42;15.55;;;-0.30;89.70;;;;;;5089161;28;20417;-74
2022/01/12 08:33:04;;;;;;;32.83;16.10;;;-0.30;89.90;;;;;;5089963;28;20716;-72
2022/01/12 08:35:31;;;;;;;36.67;16.95;;;-0.20;90.00;;;;;;5087927;28;20614;-71
2022/01/12 08:37:57;;;;;;;28.85;14.88;;;-0.20;90.00;;;;;;5089830;28;20171;-71
2022/01/12 08:40:24;;;;;;;31.30;15.38;;;-0.10;90.00;;;;;;5085288;28;20175;-73
2022/01/12 08:42:49;;;;;;;27.40;14.32;;;0.00;89.50;;;;;;5089857;28;20179;-72
2022/01/12 08:45:16;;;;;;;24.23;14.97;;;0.00;89.30;;;;;;5089321;28;20327;-71
2022/01/12 08:47:43;;;;;;;34.28;16.60;;;0.00;89.30;;;;;;5089911;28;21001;-73
2022/01/12 08:50:09;;;;;;;28.10;14.50;;;0.10;88.70;;;;;;5089807;28;20743;-71
2022/01/12 08:52:35;;;;;;;31.10;15.52;;;0.10;88.60;;;;;;5088834;28;20190;-74
2022/01/12 08:55:01;;;;;;;30.97;14.60;;;0.20;88.30;;;;;;5088191;28;20203;-72
2022/01/12 08:57:30;;;;;;;28.23;14.37;;;0.20;87.70;;;;;;5089717;28;20468;-72
2022/01/12 09:00:00;;;;;;;34.30;16.75;;;0.20;87.10;;;;;;5089754;28;20934;-74
2022/01/12 09:02:27;;;;;;;34.78;15.88;;;0.20;87.30;;;;;;5089582;28;20248;-71
2022/01/12 09:04:53;;;;;;;25.83;14.38;;;0.20;87.40;;;;;;5085348;28;20198;-72
2022/01/12 09:07:19;;;;;;;39.27;16.70;;;0.20;87.40;;;;;;5089718;28;20578;-72
2022/01/12 09:09:45;;;;;;;32.38;15.20;;;0.30;87.30;;;;;;5088818;28;20278;-71
2022/01/12 09:12:11;;;;;;;26.37;15.03;;;0.30;87.00;;;;;;5089787;28;20254;-72
2022/01/12 09:14:37;;;;;;;31.13;15.60;;;0.30;86.60;;;;;;5090010;28;20859;-74
2022/01/12 09:17:03;;;;;;;31.10;14.40;;;0.30;86.60;;;;;;5089619;28;20451;-74
2022/01/12 09:19:29;;;;;;;30.15;14.82;;;0.30;86.60;;;;;;5089744;28;20175;-74
2022/01/12 09:21:56;;;;;;;31.35;16.55;;;0.30;86.20;;;;;;5088854;28;20615;-73
2022/01/12 09:24:22;;;;;;;34.90;14.98;;;0.20;86.20;;;;;;5092875;28;20223;-71
2022/01/12 09:26:50;;;;;;;31.70;16.47;;;0.20;86.30;;;;;;5091741;28;20183;-72
2022/01/12 09:29:18;;;;;;;26.83;14.68;;;0.10;86.30;;;;;;5092565;28;20210;-74
2022/01/12 09:31:43;;;;;;;27.90;15.10;;;0.20;86.60;;;;;;5094032;28;20199;-74
2022/01/12 09:34:09;;;;;;;29.30;15.70;;;0.20;86.00;;;;;;5095207;28;20675;-75
2022/01/12 09:36:35;;;;;;;30.87;15.97;;;0.30;86.50;;;;;;5093969;28;20630;-75
2022/01/12 09:39:01;;;;;;;29.33;14.33;;;0.40;86.60;;;;;;5093794;28;20642;-72
2022/01/12 09:41:27;;;;;;;25.23;14.33;;;0.40;86.30;;;;;;5092783;28;20175;-75
2022/01/12 09:43:54;;;;;;;27.20;13.82;;;0.50;85.70;;;;;;5091485;28;20516;-73
2022/01/12 09:46:23;;;;;;;28.77;14.60;;;0.60;84.90;;;;;;5093633;28;20227;-72
2022/01/12 09:48:49;;;;;;;30.05;13.95;;;0.70;84.40;;;;;;5093427;28;20195;-73
2022/01/12 09:51:15;;;;;;;23.73;13.57;;;0.70;83.80;;;;;;5093386;28;20660;-76
2022/01/12 09:53:41;;;;;;;25.73;13.30;;;0.80;83.70;;;;;;5092701;28;20471;-73
2022/01/12 09:56:19;;;;;;;27.20;13.83;;;0.90;82.80;;;;;;5092126;28;20692;-73
2022/01/12 09:58:45;;;;;;;25.13;12.93;;;0.90;82.50;;;;;;5091572;28;20423;-75
2022/01/12 10:01:11;;;;;;;27.98;12.77;;;0.90;82.70;;;;;;5093186;28;20270;-73
2022/01/12 10:03:37;;;;;;;25.70;13.73;;;0.90;81.90;;;;;;5096684;28;20187;-74
2022/01/12 10:06:14;;;;;;;23.65;12.25;;;0.90;81.20;;;;;;5097008;28;20673;-73
2022/01/12 10:08:39;;;;;;;24.20;13.02;;;1.00;81.40;;;;;;5099313;28;20685;-74
2022/01/12 10:11:14;;;;;;;25.80;13.60;;;1.00;80.50;;;;;;5099773;28;20277;-74
2022/01/12 10:13:40;;;;;;;22.45;12.07;;;1.00;80.60;;;;;;5093330;28;20223;-73
2022/01/12 10:16:16;;;;;;;21.60;12.20;;;1.10;80.60;;;;;;5095002;28;20211;-75
2022/01/12 10:18:53;;;;;;;21.70;12.30;;;1.20;79.70;;;;;;5095175;28;20183;-75
2022/01/12 10:21:37;;;;;;;21.83;12.90;;;1.10;79.30;;;;;;5093068;28;20704;-73
2022/01/12 10:24:09;;;;;;;26.17;13.30;;;1.10;79.70;;;;;;5089409;28;20187;-75
2022/01/12 10:26:39;;;;;;;23.13;12.20;;;1.10;79.60;;;;;;5089888;28;20192;-74
2022/01/12 10:29:17;;;;;;;22.52;12.05;;;1.10;79.60;;;;;;5092560;28;20352;-75
2022/01/12 10:31:48;;;;;;;19.80;11.32;;;1.10;79.30;;;;;;5092618;28;20557;-75
2022/01/12 10:34:14;;;;;;;23.27;12.35;;;1.20;79.60;;;;;;5092107;28;20183;-73
2022/01/12 10:36:43;;;;;;;19.20;11.73;;;1.40;78.90;;;;;;5091580;28;20190;-73
2022/01/12 10:39:11;;;;;;;24.27;12.50;;;1.70;77.80;;;;;;5090640;28;20261;-74
2022/01/12 10:41:41;;;;;;;24.52;11.70;;;1.90;76.70;;;;;;5087897;28;20184;-74
2022/01/12 10:44:06;;;;;;;22.13;10.55;;;2.20;75.50;;;;;;5091725;28;20199;-75
2022/01/12 10:46:32;;;;;;;26.10;13.40;;;2.20;74.80;;;;;;5091623;28;20202;-74
2022/01/12 10:48:59;;;;;;;28.63;13.13;;;2.40;74.30;;;;;;5090292;28;20218;-74
2022/01/12 10:51:28;;;;;;;27.02;14.05;;;2.30;74.80;;;;;;5089757;28;20234;-75
2022/01/12 10:54:03;;;;;;;23.85;14.20;;;2.30;74.90;;;;;;5095332;28;20552;-74
2022/01/12 10:56:29;;;;;;;27.60;14.25;;;2.20;75.90;;;;;;5092964;28;20179;-75
2022/01/12 10:58:57;;;;;;;29.15;14.85;;;2.10;76.20;;;;;;5092439;28;20189;-77
2022/01/12 11:01:26;;;;;;;27.67;14.13;;;2.10;76.80;;;;;;5091327;28;20270;-75
2022/01/12 11:03:52;;;;;;;29.92;15.02;;;2.20;76.80;;;;;;5091119;28;20183;-75
2022/01/12 11:06:18;;;;;;;22.13;13.23;;;2.20;76.50;;;;;;5090546;28;20290;-73
2022/01/12 11:08:48;;;;;;;26.73;15.15;;;2.50;76.10;;;;;;5090026;28;20461;-75
2022/01/12 11:11:17;;;;;;;25.97;14.50;;;2.70;75.20;;;;;;5091068;28;20186;-74
2022/01/12 11:13:45;;;;;;;33.45;16.08;;;2.90;74.50;;;;;;5091438;28;20417;-75
2022/01/12 11:16:11;;;;;;;24.90;13.40;;;2.90;73.30;;;;;;5090664;28;20230;-76
2022/01/12 11:18:39;;;;;;;25.05;13.52;;;2.90;73.60;;;;;;5090100;28;20201;-73
2022/01/12 11:21:13;;;;;;;27.70;14.52;;;2.90;73.70;;;;;;5092027;28;20270;-74
2022/01/12 11:23:41;;;;;;;30.05;14.80;;;2.90;73.60;;;;;;5091502;28;20190;-75
2022/01/12 11:26:27;;;;;;;28.50;14.07;;;2.80;73.60;;;;;;5092360;28;20203;-75
2022/01/12 11:28:54;;;;;;;21.30;11.75;;;2.70;73.90;;;;;;5094065;28;20206;-75
2022/01/12 11:31:28;;;;;;;30.50;14.30;;;2.70;73.30;;;;;;5092228;28;20175;-75
2022/01/12 11:33:54;;;;;;;25.73;13.32;;;2.60;73.30;;;;;;5093337;28;20637;-75
2022/01/12 11:36:34;;;;;;;27.30;15.07;;;2.50;74.00;;;;;;5091172;28;20249;-75
2022/01/12 11:39:02;;;;;;;23.58;13.50;;;2.40;74.30;;;;;;5092047;28;20555;-74
2022/01/12 11:41:34;;;;;;;25.50;13.88;;;2.40;74.20;;;;;;5088540;28;20175;-75
2022/01/12 11:44:08;;;;;;;25.45;12.80;;;2.40;74.00;;;;;;5091541;28;20669;-75
2022/01/12 11:46:50;;;;;;;28.48;13.85;;;2.30;73.90;;;;;;5093362;28;20314;-75
2022/01/12 11:49:26;;;;;;;28.63;14.35;;;2.20;74.20;;;;;;5089150;28;20195;-76
2022/01/12 11:51:52;;;;;;;26.08;12.68;;;2.20;74.50;;;;;;5093498;28;20178;-74
2022/01/12 11:54:21;;;;;;;24.55;13.70;;;2.10;74.80;;;;;;5096335;28;20262;-75
2022/01/12 11:57:03;;;;;;;29.15;14.18;;;2.20;75.10;;;;;;5092436;28;20183;-75
2022/01/12 11:59:48;;;;;;;27.25;12.85;;;2.20;74.80;;;;;;5092919;28;20183;-74
2022/01/12 12:02:14;;;;;;;24.45;12.65;;;2.20;74.50;;;;;;5092388;28;20206;-75
2022/01/12 12:04:56;;;;;;;24.55;13.35;;;2.20;74.80;;;;;;5089577;28;20295;-74
2022/01/12 12:07:25;;;;;;;25.88;12.38;;;2.20;75.20;;;;;;5086407;28;20199;-74
2022/01/12 12:09:57;;;;;;;21.80;12.32;;;2.20;75.20;;;;;;5090834;28;20641;-74
2022/01/12 12:12:36;;;;;;;23.40;12.45;;;2.20;74.50;;;;;;5092593;28;20585;-75
2022/01/12 12:15:05;;;;;;;24.80;11.13;;;2.20;74.30;;;;;;5090516;28;20723;-72
2022/01/12 12:17:33;;;;;;;23.60;11.40;;;2.00;75.20;;;;;;5091470;28;20520;-75
2022/01/12 12:19:59;;;;;;;26.02;12.60;;;2.00;75.80;;;;;;5090797;28;20285;-74
2022/01/12 12:22:31;;;;;;;31.20;12.05;;;2.10;75.90;;;;;;5094391;28;20194;-75
2022/01/12 12:25:01;;;;;;;22.67;12.35;;;2.20;75.70;;;;;;5095625;28;20203;-75
2022/01/12 12:27:29;;;;;;;22.83;12.77;;;2.20;75.20;;;;;;5094976;28;20630;-74
2022/01/12 12:29:55;;;;;;;20.83;11.68;;;2.20;75.40;;;;;;5083662;28;20178;-74
2022/01/12 12:32:37;;;;;;;27.63;13.00;;;2.20;75.70;;;;;;5089329;28;20649;-73
2022/01/12 12:35:13;;;;;;;27.80;12.57;;;2.20;75.90;;;;;;5088520;28;20199;-74
2022/01/12 12:37:51;;;;;;;25.08;13.45;;;2.30;75.50;;;;;;5099628;28;20676;-73
2022/01/12 12:40:26;;;;;;;20.83;11.65;;;2.40;75.70;;;;;;5098310;28;20186;-75
2022/01/12 12:43:04;;;;;;;22.60;11.55;;;2.40;75.50;;;;;;5098650;28;20179;-75
2022/01/12 12:45:43;;;;;;;23.30;13.00;;;2.60;75.40;;;;;;5091151;28;20612;-75
2022/01/12 12:48:11;;;;;;;21.88;12.23;;;2.70;74.00;;;;;;5092969;28;20203;-76
2022/01/12 12:50:37;;;;;;;25.50;13.25;;;2.80;73.70;;;;;;5094631;28;20176;-76
2022/01/12 12:53:03;;;;;;;25.10;14.27;;;3.00;73.30;;;;;;5091102;28;20182;-74
2022/01/12 12:55:35;;;;;;;30.90;14.55;;;3.20;72.70;;;;;;5089138;28;20191;-75
2022/01/12 12:58:01;;;;;;;27.10;13.65;;;3.30;71.70;;;;;;5093964;28;20188;-76
2022/01/12 13:00:28;;;;;;;22.57;11.90;;;3.20;71.70;;;;;;5091928;28;20182;-73
2022/01/12 13:02:56;;;;;;;22.60;12.90;;;3.30;72.00;;;;;;5099278;28;20417;-74
2022/01/12 13:05:36;;;;;;;26.17;14.15;;;3.50;71.80;;;;;;5094868;28;20444;-75
2022/01/12 13:08:02;;;;;;;25.25;13.35;;;3.60;70.70;;;;;;5087605;28;20203;-74
2022/01/12 13:10:30;;;;;;;25.60;13.85;;;3.60;70.20;;;;;;5095446;28;20183;-74
2022/01/12 13:12:59;;;;;;;28.37;13.70;;;3.60;70.40;;;;;;5096139;28;20179;-75
2022/01/12 13:15:35;;;;;;;28.85;13.48;;;3.70;70.70;;;;;;5094592;28;20528;-75
2022/01/12 13:18:13;;;;;;;24.97;13.90;;;3.80;70.50;;;;;;5096418;28;20186;-75
2022/01/12 13:23:27;;;;;;;23.93;12.90;;;3.80;69.40;;;;;;5092764;28;20190;-74
2022/01/12 13:25:55;;;;;;;24.23;13.10;;;3.80;69.40;;;;;;5095099;28;20456;-75
2022/01/12 13:28:21;;;;;;;24.25;12.95;;;3.80;69.50;;;;;;5094948;28;20493;-75
2022/01/12 13:30:56;;;;;;;20.67;11.57;;;3.70;69.80;;;;;;5093299;28;20259;-77
2022/01/12 13:33:31;;;;;;;20.33;11.77;;;3.50;69.80;;;;;;5088269;28;20775;-73
2022/01/12 13:35:59;;;;;;;21.15;11.95;;;3.10;71.30;;;;;;5093189;28;20191;-75
2022/01/12 13:38:27;;;;;;;22.63;12.65;;;3.20;71.80;;;;;;5093709;28;20191;-74
2022/01/12 13:40:55;;;;;;;23.20;11.97;;;3.20;72.00;;;;;;5091387;28;20183;-76
2022/01/12 13:43:23;;;;;;;21.27;11.90;;;3.30;71.70;;;;;;5093330;28;20425;-75
2022/01/12 13:45:57;;;;;;;23.75;11.50;;;3.40;71.40;;;;;;5092615;28;20237;-75
2022/01/12 13:48:32;;;;;;;23.35;12.65;;;3.40;71.40;;;;;;5094747;28;20332;-75
2022/01/12 13:50:59;;;;;;;22.10;12.67;;;3.40;71.30;;;;;;5093915;28;20480;-76
2022/01/12 13:53:36;;;;;;;27.95;12.80;;;3.40;71.40;;;;;;5092843;28;20414;-74
2022/01/12 13:56:04;;;;;;;24.67;13.18;;;3.10;72.40;;;;;;5091313;28;20199;-75
2022/01/12 13:58:31;;;;;;;29.88;13.60;;;3.00;73.70;;;;;;5096490;28;20193;-74
2022/01/12 14:01:11;;;;;;;27.00;13.70;;;2.80;73.90;;;;;;5095796;28;20269;-75
2022/01/12 14:03:43;;;;;;;20.30;11.63;;;2.80;74.30;;;;;;5090236;28;20186;-75
2022/01/12 14:06:17;;;;;;;23.13;12.55;;;2.80;74.50;;;;;;5092145;28;20203;-76